sensor_id;sensor_type;location;lat;lon;timestamp;P1;durP1;ratioP1;P2;durP2;ratioP2
61413;SDS011;47279;52.426;10.488;2022-07-25T00:01:01;0.82;;;0.82;;
61413;SDS011;47279;52.426;10.488;2022-07-25T00:03:27;1.13;;;0.90;;
61413;SDS011;47279;52.426;10.488;2022-07-25T00:05:53;1.35;;;0.85;;
61413;SDS011;47279;52.426;10.488;2022-07-25T00:08:19;1.05;;;0.90;;
61413;SDS011;47279;52.426;10.488;2022-07-25T00:10:45;0.80;;;0.80;;
61413;SDS011;47279;52.426;10.488;2022-07-25T00:13:11;0.80;;;0.80;;
61413;SDS011;47279;52.426;10.488;2022-07-25T00:15:37;0.88;;;0.88;;
61413;SDS011;47279;52.426;10.488;2022-07-25T00:18:03;1.00;;;0.90;;
61413;SDS011;47279;52.426;10.488;2022-07-25T00:20:29;1.00;;;0.90;;
61413;SDS011;47279;52.426;10.488;2022-07-25T00:22:55;1.00;;;1.00;;
61413;SDS011;47279;52.426;10.488;2022-07-25T00:25:21;0.80;;;0.80;;
61413;SDS011;47279;52.426;10.488;2022-07-25T00:27:47;0.90;;;0.80;;
61413;SDS011;47279;52.426;10.488;2022-07-25T00:30:13;1.20;;;1.10;;
61413;SDS011;47279;52.426;10.488;2022-07-25T00:32:39;1.85;;;1.08;;
61413;SDS011;47279;52.426;10.488;2022-07-25T00:35:05;1.20;;;1.10;;
61413;SDS011;47279;52.426;10.488;2022-07-25T00:37:31;0.98;;;0.98;;
61413;SDS011;47279;52.426;10.488;2022-07-25T00:39:57;1.10;;;1.00;;
61413;SDS011;47279;52.426;10.488;2022-07-25T00:42:23;0.95;;;0.90;;
61413;SDS011;47279;52.426;10.488;2022-07-25T00:44:49;1.00;;;0.90;;
61413;SDS011;47279;52.426;10.488;2022-07-25T00:47:16;1.10;;;1.00;;
61413;SDS011;47279;52.426;10.488;2022-07-25T00:49:42;1.15;;;0.85;;
61413;SDS011;47279;52.426;10.488;2022-07-25T00:52:08;1.05;;;0.95;;
61413;SDS011;47279;52.426;10.488;2022-07-25T00:54:34;1.13;;;1.13;;
61413;SDS011;47279;52.426;10.488;2022-07-25T00:57:00;0.80;;;0.80;;
61413;SDS011;47279;52.426;10.488;2022-07-25T00:59:26;1.00;;;1.00;;
61413;SDS011;47279;52.426;10.488;2022-07-25T01:01:52;0.77;;;0.77;;
61413;SDS011;47279;52.426;10.488;2022-07-25T01:04:18;0.80;;;0.80;;
61413;SDS011;47279;52.426;10.488;2022-07-25T01:06:45;1.33;;;0.98;;
61413;SDS011;47279;52.426;10.488;2022-07-25T01:09:11;1.38;;;1.27;;
61413;SDS011;47279;52.426;10.488;2022-07-25T01:11:37;1.20;;;1.10;;
61413;SDS011;47279;52.426;10.488;2022-07-25T01:14:03;1.10;;;1.00;;
61413;SDS011;47279;52.426;10.488;2022-07-25T01:16:29;1.40;;;1.23;;
61413;SDS011;47279;52.426;10.488;2022-07-25T01:18:55;1.10;;;1.00;;
61413;SDS011;47279;52.426;10.488;2022-07-25T01:21:22;1.40;;;1.13;;
61413;SDS011;47279;52.426;10.488;2022-07-25T01:23:48;0.90;;;0.90;;
61413;SDS011;47279;52.426;10.488;2022-07-25T01:26:14;1.10;;;1.00;;
61413;SDS011;47279;52.426;10.488;2022-07-25T01:28:40;1.27;;;0.90;;
61413;SDS011;47279;52.426;10.488;2022-07-25T01:31:06;1.00;;;1.00;;
61413;SDS011;47279;52.426;10.488;2022-07-25T01:33:32;1.00;;;0.90;;
61413;SDS011;47279;52.426;10.488;2022-07-25T01:35:58;0.85;;;0.85;;
61413;SDS011;47279;52.426;10.488;2022-07-25T01:38:24;1.10;;;1.00;;
61413;SDS011;47279;52.426;10.488;2022-07-25T01:40:50;0.90;;;0.90;;
61413;SDS011;47279;52.426;10.488;2022-07-25T01:43:16;1.00;;;1.00;;
61413;SDS011;47279;52.426;10.488;2022-07-25T01:45:42;0.80;;;0.80;;
61413;SDS011;47279;52.426;10.488;2022-07-25T01:48:08;1.58;;;0.95;;
61413;SDS011;47279;52.426;10.488;2022-07-25T01:50:35;1.00;;;0.90;;
61413;SDS011;47279;52.426;10.488;2022-07-25T01:53:01;2.05;;;0.90;;
61413;SDS011;47279;52.426;10.488;2022-07-25T01:55:27;0.70;;;0.70;;
61413;SDS011;47279;52.426;10.488;2022-07-25T01:57:53;1.00;;;1.00;;
61413;SDS011;47279;52.426;10.488;2022-07-25T02:00:19;0.77;;;0.77;;
61413;SDS011;47279;52.426;10.488;2022-07-25T02:02:45;1.10;;;0.98;;
61413;SDS011;47279;52.426;10.488;2022-07-25T02:05:12;0.70;;;0.70;;
61413;SDS011;47279;52.426;10.488;2022-07-25T02:07:38;1.00;;;1.00;;
61413;SDS011;47279;52.426;10.488;2022-07-25T02:10:05;0.80;;;0.77;;
61413;SDS011;47279;52.426;10.488;2022-07-25T02:12:31;0.90;;;0.90;;
61413;SDS011;47279;52.426;10.488;2022-07-25T02:14:57;1.20;;;0.93;;
61413;SDS011;47279;52.426;10.488;2022-07-25T02:17:23;1.10;;;1.00;;
61413;SDS011;47279;52.426;10.488;2022-07-25T02:19:49;1.02;;;0.90;;
61413;SDS011;47279;52.426;10.488;2022-07-25T02:22:15;0.88;;;0.88;;
61413;SDS011;47279;52.426;10.488;2022-07-25T02:24:41;1.10;;;1.00;;
61413;SDS011;47279;52.426;10.488;2022-07-25T02:27:07;1.08;;;0.98;;
61413;SDS011;47279;52.426;10.488;2022-07-25T02:29:34;0.90;;;0.90;;
61413;SDS011;47279;52.426;10.488;2022-07-25T02:32:00;1.20;;;1.10;;
61413;SDS011;47279;52.426;10.488;2022-07-25T02:34:26;0.90;;;0.90;;
61413;SDS011;47279;52.426;10.488;2022-07-25T02:36:52;1.10;;;1.00;;
61413;SDS011;47279;52.426;10.488;2022-07-25T02:39:17;1.10;;;1.00;;
61413;SDS011;47279;52.426;10.488;2022-07-25T02:41:45;1.00;;;0.90;;
61413;SDS011;47279;52.426;10.488;2022-07-25T02:44:11;1.38;;;1.10;;
61413;SDS011;47279;52.426;10.488;2022-07-25T02:46:37;0.90;;;0.90;;
61413;SDS011;47279;52.426;10.488;2022-07-25T02:49:03;1.30;;;1.13;;
61413;SDS011;47279;52.426;10.488;2022-07-25T02:51:29;1.10;;;1.00;;
61413;SDS011;47279;52.426;10.488;2022-07-25T02:53:55;1.45;;;0.98;;
61413;SDS011;47279;52.426;10.488;2022-07-25T02:56:21;1.05;;;0.90;;
61413;SDS011;47279;52.426;10.488;2022-07-25T02:58:47;1.08;;;1.00;;
61413;SDS011;47279;52.426;10.488;2022-07-25T03:01:12;1.10;;;1.00;;
61413;SDS011;47279;52.426;10.488;2022-07-25T03:03:38;0.80;;;0.80;;
61413;SDS011;47279;52.426;10.488;2022-07-25T03:06:04;1.15;;;1.05;;
61413;SDS011;47279;52.426;10.488;2022-07-25T03:08:30;1.20;;;1.10;;
61413;SDS011;47279;52.426;10.488;2022-07-25T03:10:56;0.98;;;0.98;;
61413;SDS011;47279;52.426;10.488;2022-07-25T03:13:23;0.90;;;0.90;;
61413;SDS011;47279;52.426;10.488;2022-07-25T03:15:49;1.15;;;1.05;;
61413;SDS011;47279;52.426;10.488;2022-07-25T03:18:15;1.10;;;1.00;;
61413;SDS011;47279;52.426;10.488;2022-07-25T03:20:41;1.15;;;1.00;;
61413;SDS011;47279;52.426;10.488;2022-07-25T03:23:07;0.95;;;0.93;;
61413;SDS011;47279;52.426;10.488;2022-07-25T03:25:33;1.08;;;0.98;;
61413;SDS011;47279;52.426;10.488;2022-07-25T03:27:59;1.02;;;0.98;;
61413;SDS011;47279;52.426;10.488;2022-07-25T03:30:25;1.05;;;1.00;;
61413;SDS011;47279;52.426;10.488;2022-07-25T03:32:51;1.38;;;1.27;;
61413;SDS011;47279;52.426;10.488;2022-07-25T03:35:18;1.15;;;1.08;;
61413;SDS011;47279;52.426;10.488;2022-07-25T03:37:44;1.00;;;0.90;;
61413;SDS011;47279;52.426;10.488;2022-07-25T03:40:10;1.13;;;1.02;;
61413;SDS011;47279;52.426;10.488;2022-07-25T03:42:36;1.00;;;1.00;;
61413;SDS011;47279;52.426;10.488;2022-07-25T03:45:03;1.00;;;1.00;;
61413;SDS011;47279;52.426;10.488;2022-07-25T03:47:29;1.35;;;1.15;;
61413;SDS011;47279;52.426;10.488;2022-07-25T03:49:55;1.23;;;1.10;;
61413;SDS011;47279;52.426;10.488;2022-07-25T03:52:21;1.13;;;0.90;;
61413;SDS011;47279;52.426;10.488;2022-07-25T03:54:47;1.10;;;1.00;;
61413;SDS011;47279;52.426;10.488;2022-07-25T03:57:13;0.90;;;0.90;;
61413;SDS011;47279;52.426;10.488;2022-07-25T03:59:39;0.90;;;0.90;;
61413;SDS011;47279;52.426;10.488;2022-07-25T04:02:05;1.23;;;1.00;;
61413;SDS011;47279;52.426;10.488;2022-07-25T04:04:31;1.05;;;1.00;;
61413;SDS011;47279;52.426;10.488;2022-07-25T04:06:57;1.17;;;1.08;;
61413;SDS011;47279;52.426;10.488;2022-07-25T04:09:23;0.90;;;0.90;;
61413;SDS011;47279;52.426;10.488;2022-07-25T04:11:49;1.20;;;1.10;;
61413;SDS011;47279;52.426;10.488;2022-07-25T04:14:15;1.08;;;1.08;;
61413;SDS011;47279;52.426;10.488;2022-07-25T04:16:41;1.25;;;1.10;;
61413;SDS011;47279;52.426;10.488;2022-07-25T04:19:07;1.25;;;1.15;;
61413;SDS011;47279;52.426;10.488;2022-07-25T04:21:33;1.23;;;1.10;;
61413;SDS011;47279;52.426;10.488;2022-07-25T04:23:59;1.00;;;1.00;;
61413;SDS011;47279;52.426;10.488;2022-07-25T04:26:25;1.20;;;1.10;;
61413;SDS011;47279;52.426;10.488;2022-07-25T04:28:51;1.02;;;1.02;;
61413;SDS011;47279;52.426;10.488;2022-07-25T04:31:17;1.63;;;1.20;;
61413;SDS011;47279;52.426;10.488;2022-07-25T04:33:43;1.20;;;1.10;;
61413;SDS011;47279;52.426;10.488;2022-07-25T04:36:10;1.25;;;1.15;;
61413;SDS011;47279;52.426;10.488;2022-07-25T04:38:35;1.35;;;1.25;;
61413;SDS011;47279;52.426;10.488;2022-07-25T04:41:02;1.48;;;1.00;;
61413;SDS011;47279;52.426;10.488;2022-07-25T04:43:28;1.10;;;1.00;;
61413;SDS011;47279;52.426;10.488;2022-07-25T04:45:54;1.20;;;1.10;;
61413;SDS011;47279;52.426;10.488;2022-07-25T04:48:20;1.08;;;1.08;;
61413;SDS011;47279;52.426;10.488;2022-07-25T04:50:46;1.20;;;1.10;;
61413;SDS011;47279;52.426;10.488;2022-07-25T04:53:12;3.33;;;1.50;;
61413;SDS011;47279;52.426;10.488;2022-07-25T04:55:38;1.77;;;1.13;;
61413;SDS011;47279;52.426;10.488;2022-07-25T04:58:04;1.10;;;1.00;;
61413;SDS011;47279;52.426;10.488;2022-07-25T05:00:30;1.10;;;1.05;;
61413;SDS011;47279;52.426;10.488;2022-07-25T05:02:57;1.08;;;1.08;;
61413;SDS011;47279;52.426;10.488;2022-07-25T05:05:23;1.20;;;1.10;;
61413;SDS011;47279;52.426;10.488;2022-07-25T05:07:49;1.20;;;1.10;;
61413;SDS011;47279;52.426;10.488;2022-07-25T05:10:16;1.30;;;1.20;;
61413;SDS011;47279;52.426;10.488;2022-07-25T05:12:41;1.00;;;1.00;;
61413;SDS011;47279;52.426;10.488;2022-07-25T05:15:08;1.38;;;1.23;;
61413;SDS011;47279;52.426;10.488;2022-07-25T05:17:34;1.35;;;1.25;;
61413;SDS011;47279;52.426;10.488;2022-07-25T05:20:00;1.10;;;1.10;;
61413;SDS011;47279;52.426;10.488;2022-07-25T05:22:26;1.17;;;1.08;;
61413;SDS011;47279;52.426;10.488;2022-07-25T05:24:51;1.17;;;1.08;;
61413;SDS011;47279;52.426;10.488;2022-07-25T05:27:17;1.20;;;1.10;;
61413;SDS011;47279;52.426;10.488;2022-07-25T05:29:43;1.60;;;1.02;;
61413;SDS011;47279;52.426;10.488;2022-07-25T05:32:09;1.30;;;1.20;;
61413;SDS011;47279;52.426;10.488;2022-07-25T05:34:35;1.30;;;1.20;;
61413;SDS011;47279;52.426;10.488;2022-07-25T05:37:01;1.20;;;1.10;;
61413;SDS011;47279;52.426;10.488;2022-07-25T05:39:27;1.10;;;1.00;;
61413;SDS011;47279;52.426;10.488;2022-07-25T05:41:53;1.10;;;1.00;;
61413;SDS011;47279;52.426;10.488;2022-07-25T05:44:19;1.50;;;1.20;;
61413;SDS011;47279;52.426;10.488;2022-07-25T05:46:45;1.17;;;1.08;;
61413;SDS011;47279;52.426;10.488;2022-07-25T05:49:11;1.13;;;1.00;;
61413;SDS011;47279;52.426;10.488;2022-07-25T05:51:37;1.10;;;1.00;;
61413;SDS011;47279;52.426;10.488;2022-07-25T05:54:03;1.30;;;1.20;;
61413;SDS011;47279;52.426;10.488;2022-07-25T05:56:29;1.02;;;1.00;;
61413;SDS011;47279;52.426;10.488;2022-07-25T05:58:55;1.45;;;1.10;;
61413;SDS011;47279;52.426;10.488;2022-07-25T06:01:21;1.30;;;1.08;;
61413;SDS011;47279;52.426;10.488;2022-07-25T06:03:47;1.00;;;1.00;;
61413;SDS011;47279;52.426;10.488;2022-07-25T06:06:13;1.17;;;1.10;;
61413;SDS011;47279;52.426;10.488;2022-07-25T06:08:39;1.38;;;1.27;;
61413;SDS011;47279;52.426;10.488;2022-07-25T06:11:05;1.30;;;1.20;;
61413;SDS011;47279;52.426;10.488;2022-07-25T06:13:31;1.50;;;1.40;;
61413;SDS011;47279;52.426;10.488;2022-07-25T06:15:57;1.17;;;1.15;;
61413;SDS011;47279;52.426;10.488;2022-07-25T06:18:24;1.58;;;1.48;;
61413;SDS011;47279;52.426;10.488;2022-07-25T06:20:50;1.30;;;1.20;;
61413;SDS011;47279;52.426;10.488;2022-07-25T06:23:16;1.50;;;1.40;;
61413;SDS011;47279;52.426;10.488;2022-07-25T06:25:42;1.40;;;1.23;;
61413;SDS011;47279;52.426;10.488;2022-07-25T06:28:08;1.30;;;1.20;;
61413;SDS011;47279;52.426;10.488;2022-07-25T06:30:34;1.70;;;1.30;;
61413;SDS011;47279;52.426;10.488;2022-07-25T06:33:00;1.38;;;1.27;;
61413;SDS011;47279;52.426;10.488;2022-07-25T06:35:26;1.20;;;1.10;;
61413;SDS011;47279;52.426;10.488;2022-07-25T06:37:52;1.65;;;1.17;;
61413;SDS011;47279;52.426;10.488;2022-07-25T06:40:18;1.20;;;1.10;;
61413;SDS011;47279;52.426;10.488;2022-07-25T06:42:45;1.50;;;1.20;;
61413;SDS011;47279;52.426;10.488;2022-07-25T06:45:11;1.20;;;1.10;;
61413;SDS011;47279;52.426;10.488;2022-07-25T06:47:38;1.20;;;1.10;;
61413;SDS011;47279;52.426;10.488;2022-07-25T06:50:05;1.30;;;1.20;;
61413;SDS011;47279;52.426;10.488;2022-07-25T06:52:31;1.30;;;1.20;;
61413;SDS011;47279;52.426;10.488;2022-07-25T06:54:57;1.40;;;1.30;;
61413;SDS011;47279;52.426;10.488;2022-07-25T06:57:23;1.10;;;1.00;;
61413;SDS011;47279;52.426;10.488;2022-07-25T06:59:49;1.20;;;1.10;;
61413;SDS011;47279;52.426;10.488;2022-07-25T07:02:15;1.20;;;1.10;;
61413;SDS011;47279;52.426;10.488;2022-07-25T07:04:41;1.42;;;1.33;;
61413;SDS011;47279;52.426;10.488;2022-07-25T07:07:07;1.30;;;1.05;;
61413;SDS011;47279;52.426;10.488;2022-07-25T07:09:33;1.20;;;1.10;;
61413;SDS011;47279;52.426;10.488;2022-07-25T07:11:59;2.47;;;1.10;;
61413;SDS011;47279;52.426;10.488;2022-07-25T07:14:25;1.20;;;1.10;;
61413;SDS011;47279;52.426;10.488;2022-07-25T07:16:51;1.35;;;1.10;;
61413;SDS011;47279;52.426;10.488;2022-07-25T07:19:17;1.20;;;1.10;;
61413;SDS011;47279;52.426;10.488;2022-07-25T07:21:43;1.55;;;1.08;;
61413;SDS011;47279;52.426;10.488;2022-07-25T07:24:09;1.30;;;1.20;;
61413;SDS011;47279;52.426;10.488;2022-07-25T07:26:35;1.30;;;1.20;;
61413;SDS011;47279;52.426;10.488;2022-07-25T07:29:01;1.10;;;1.00;;
61413;SDS011;47279;52.426;10.488;2022-07-25T07:31:28;1.30;;;1.20;;
61413;SDS011;47279;52.426;10.488;2022-07-25T07:33:54;1.20;;;1.10;;
61413;SDS011;47279;52.426;10.488;2022-07-25T07:36:22;1.30;;;1.20;;
61413;SDS011;47279;52.426;10.488;2022-07-25T07:38:48;1.23;;;1.13;;
61413;SDS011;47279;52.426;10.488;2022-07-25T07:41:14;1.23;;;1.13;;
61413;SDS011;47279;52.426;10.488;2022-07-25T07:43:40;1.42;;;1.33;;
61413;SDS011;47279;52.426;10.488;2022-07-25T07:46:06;1.27;;;1.17;;
61413;SDS011;47279;52.426;10.488;2022-07-25T07:48:32;1.00;;;1.00;;
61413;SDS011;47279;52.426;10.488;2022-07-25T07:50:59;1.00;;;1.00;;
61413;SDS011;47279;52.426;10.488;2022-07-25T07:53:25;1.40;;;1.30;;
61413;SDS011;47279;52.426;10.488;2022-07-25T07:56:12;1.20;;;1.10;;
61413;SDS011;47279;52.426;10.488;2022-07-25T07:58:38;1.10;;;1.10;;
61413;SDS011;47279;52.426;10.488;2022-07-25T08:01:04;1.40;;;1.25;;
61413;SDS011;47279;52.426;10.488;2022-07-25T08:03:30;1.30;;;1.20;;
61413;SDS011;47279;52.426;10.488;2022-07-25T08:05:57;1.30;;;1.20;;
61413;SDS011;47279;52.426;10.488;2022-07-25T08:08:23;1.30;;;1.20;;
61413;SDS011;47279;52.426;10.488;2022-07-25T08:10:49;1.13;;;1.02;;
61413;SDS011;47279;52.426;10.488;2022-07-25T08:15:41;1.20;;;1.10;;
61413;SDS011;47279;52.426;10.488;2022-07-25T08:18:08;1.35;;;1.25;;
61413;SDS011;47279;52.426;10.488;2022-07-25T08:20:34;1.20;;;1.10;;
61413;SDS011;47279;52.426;10.488;2022-07-25T08:23:00;1.70;;;1.20;;
61413;SDS011;47279;52.426;10.488;2022-07-25T08:25:26;1.23;;;1.13;;
61413;SDS011;47279;52.426;10.488;2022-07-25T08:27:52;1.20;;;1.10;;
61413;SDS011;47279;52.426;10.488;2022-07-25T08:30:18;1.35;;;1.15;;
61413;SDS011;47279;52.426;10.488;2022-07-25T08:32:48;1.25;;;1.15;;
61413;SDS011;47279;52.426;10.488;2022-07-25T08:35:15;1.30;;;1.20;;
61413;SDS011;47279;52.426;10.488;2022-07-25T08:37:41;1.20;;;1.10;;
61413;SDS011;47279;52.426;10.488;2022-07-25T08:40:07;1.30;;;1.20;;
61413;SDS011;47279;52.426;10.488;2022-07-25T08:42:33;1.10;;;1.00;;
61413;SDS011;47279;52.426;10.488;2022-07-25T08:45:01;1.70;;;1.40;;
61413;SDS011;47279;52.426;10.488;2022-07-25T08:47:28;1.50;;;1.40;;
61413;SDS011;47279;52.426;10.488;2022-07-25T08:49:55;0.95;;;0.95;;
61413;SDS011;47279;52.426;10.488;2022-07-25T08:52:21;1.27;;;1.17;;
61413;SDS011;47279;52.426;10.488;2022-07-25T08:54:47;1.10;;;1.00;;
61413;SDS011;47279;52.426;10.488;2022-07-25T08:57:13;1.40;;;1.30;;
61413;SDS011;47279;52.426;10.488;2022-07-25T08:59:39;1.63;;;1.30;;
61413;SDS011;47279;52.426;10.488;2022-07-25T09:02:06;1.30;;;1.20;;
61413;SDS011;47279;52.426;10.488;2022-07-25T09:04:35;1.30;;;1.20;;
61413;SDS011;47279;52.426;10.488;2022-07-25T09:07:01;1.40;;;1.30;;
61413;SDS011;47279;52.426;10.488;2022-07-25T09:09:32;1.40;;;1.30;;
61413;SDS011;47279;52.426;10.488;2022-07-25T09:11:58;1.20;;;1.08;;
61413;SDS011;47279;52.426;10.488;2022-07-25T09:14:24;1.33;;;1.23;;
61413;SDS011;47279;52.426;10.488;2022-07-25T09:16:50;1.38;;;1.27;;
61413;SDS011;47279;52.426;10.488;2022-07-25T09:19:20;1.40;;;1.20;;
61413;SDS011;47279;52.426;10.488;2022-07-25T09:21:56;1.23;;;1.13;;
61413;SDS011;47279;52.426;10.488;2022-07-25T09:24:23;1.38;;;1.27;;
61413;SDS011;47279;52.426;10.488;2022-07-25T09:26:53;1.15;;;1.08;;
61413;SDS011;47279;52.426;10.488;2022-07-25T09:31:45;1.20;;;1.10;;
61413;SDS011;47279;52.426;10.488;2022-07-25T09:34:11;1.40;;;1.30;;
61413;SDS011;47279;52.426;10.488;2022-07-25T09:36:58;1.40;;;1.30;;
61413;SDS011;47279;52.426;10.488;2022-07-25T09:41:58;1.63;;;1.20;;
61413;SDS011;47279;52.426;10.488;2022-07-25T09:44:24;1.60;;;1.50;;
61413;SDS011;47279;52.426;10.488;2022-07-25T09:46:54;1.40;;;1.30;;
61413;SDS011;47279;52.426;10.488;2022-07-25T09:49:21;1.40;;;1.30;;
61413;SDS011;47279;52.426;10.488;2022-07-25T09:51:47;1.48;;;1.38;;
61413;SDS011;47279;52.426;10.488;2022-07-25T09:54:13;1.98;;;1.42;;
61413;SDS011;47279;52.426;10.488;2022-07-25T09:56:40;1.25;;;1.15;;
61413;SDS011;47279;52.426;10.488;2022-07-25T09:59:06;2.70;;;1.20;;
61413;SDS011;47279;52.426;10.488;2022-07-25T10:01:36;1.38;;;1.27;;
61413;SDS011;47279;52.426;10.488;2022-07-25T10:06:37;1.10;;;0.98;;
61413;SDS011;47279;52.426;10.488;2022-07-25T10:09:10;1.40;;;1.30;;
61413;SDS011;47279;52.426;10.488;2022-07-25T10:11:36;1.10;;;1.00;;
61413;SDS011;47279;52.426;10.488;2022-07-25T10:14:08;1.30;;;1.20;;
61413;SDS011;47279;52.426;10.488;2022-07-25T10:16:43;1.30;;;1.20;;
61413;SDS011;47279;52.426;10.488;2022-07-25T10:19:09;1.52;;;1.40;;
61413;SDS011;47279;52.426;10.488;2022-07-25T10:21:35;1.40;;;1.30;;
61413;SDS011;47279;52.426;10.488;2022-07-25T10:24:02;1.20;;;1.10;;
61413;SDS011;47279;52.426;10.488;2022-07-25T10:26:29;1.35;;;1.25;;
61413;SDS011;47279;52.426;10.488;2022-07-25T10:28:56;1.45;;;1.10;;
61413;SDS011;47279;52.426;10.488;2022-07-25T10:31:32;1.40;;;1.30;;
61413;SDS011;47279;52.426;10.488;2022-07-25T10:33:59;1.30;;;1.20;;
61413;SDS011;47279;52.426;10.488;2022-07-25T10:36:26;1.30;;;1.20;;
61413;SDS011;47279;52.426;10.488;2022-07-25T10:38:56;1.30;;;1.20;;
61413;SDS011;47279;52.426;10.488;2022-07-25T10:41:23;1.40;;;1.30;;
61413;SDS011;47279;52.426;10.488;2022-07-25T10:43:50;1.38;;;1.27;;
61413;SDS011;47279;52.426;10.488;2022-07-25T10:46:19;1.23;;;1.13;;
61413;SDS011;47279;52.426;10.488;2022-07-25T10:48:57;1.38;;;1.27;;
61413;SDS011;47279;52.426;10.488;2022-07-25T10:51:31;1.30;;;1.20;;
61413;SDS011;47279;52.426;10.488;2022-07-25T10:53:58;1.30;;;1.20;;
61413;SDS011;47279;52.426;10.488;2022-07-25T10:56:25;1.27;;;1.17;;
61413;SDS011;47279;52.426;10.488;2022-07-25T10:58:52;2.85;;;1.30;;
61413;SDS011;47279;52.426;10.488;2022-07-25T11:01:22;1.50;;;1.40;;
61413;SDS011;47279;52.426;10.488;2022-07-25T11:03:50;1.40;;;1.30;;
61413;SDS011;47279;52.426;10.488;2022-07-25T11:06:28;1.58;;;1.48;;
61413;SDS011;47279;52.426;10.488;2022-07-25T11:08:54;1.20;;;1.10;;
61413;SDS011;47279;52.426;10.488;2022-07-25T11:11:31;1.48;;;1.38;;
61413;SDS011;47279;52.426;10.488;2022-07-25T11:13:57;1.63;;;1.30;;
61413;SDS011;47279;52.426;10.488;2022-07-25T11:16:25;1.40;;;1.30;;
61413;SDS011;47279;52.426;10.488;2022-07-25T11:18:51;1.27;;;1.17;;
61413;SDS011;47279;52.426;10.488;2022-07-25T11:21:19;1.33;;;1.23;;
61413;SDS011;47279;52.426;10.488;2022-07-25T11:23:49;1.40;;;1.30;;
61413;SDS011;47279;52.426;10.488;2022-07-25T11:26:15;1.38;;;1.27;;
61413;SDS011;47279;52.426;10.488;2022-07-25T11:28:42;1.60;;;1.50;;
61413;SDS011;47279;52.426;10.488;2022-07-25T11:31:09;1.83;;;1.40;;
61413;SDS011;47279;52.426;10.488;2022-07-25T11:33:37;1.40;;;1.30;;
61413;SDS011;47279;52.426;10.488;2022-07-25T11:36:03;1.63;;;1.20;;
61413;SDS011;47279;52.426;10.488;2022-07-25T11:38:29;1.45;;;1.35;;
61413;SDS011;47279;52.426;10.488;2022-07-25T11:40:55;1.60;;;1.50;;
61413;SDS011;47279;52.426;10.488;2022-07-25T11:43:22;1.42;;;1.33;;
61413;SDS011;47279;52.426;10.488;2022-07-25T11:46:21;1.77;;;1.60;;
61413;SDS011;47279;52.426;10.488;2022-07-25T11:48:42;1.50;;;1.40;;
61413;SDS011;47279;52.426;10.488;2022-07-25T11:51:09;1.52;;;1.42;;
61413;SDS011;47279;52.426;10.488;2022-07-25T11:53:39;1.55;;;1.45;;
61413;SDS011;47279;52.426;10.488;2022-07-25T11:56:09;1.45;;;1.35;;
61413;SDS011;47279;52.426;10.488;2022-07-25T11:58:35;1.17;;;1.13;;
61413;SDS011;47279;52.426;10.488;2022-07-25T12:01:09;1.58;;;1.48;;
61413;SDS011;47279;52.426;10.488;2022-07-25T12:03:36;1.40;;;1.30;;
61413;SDS011;47279;52.426;10.488;2022-07-25T12:06:09;1.35;;;1.25;;
61413;SDS011;47279;52.426;10.488;2022-07-25T12:08:36;1.33;;;1.17;;
61413;SDS011;47279;52.426;10.488;2022-07-25T12:11:03;1.30;;;1.20;;
61413;SDS011;47279;52.426;10.488;2022-07-25T12:13:29;1.58;;;1.45;;
61413;SDS011;47279;52.426;10.488;2022-07-25T12:15:56;1.30;;;1.20;;
61413;SDS011;47279;52.426;10.488;2022-07-25T12:18:22;1.65;;;1.40;;
61413;SDS011;47279;52.426;10.488;2022-07-25T12:20:48;1.58;;;1.48;;
61413;SDS011;47279;52.426;10.488;2022-07-25T12:23:14;1.30;;;1.20;;
61413;SDS011;47279;52.426;10.488;2022-07-25T12:25:41;1.45;;;1.35;;
61413;SDS011;47279;52.426;10.488;2022-07-25T12:28:08;1.52;;;1.42;;
61413;SDS011;47279;52.426;10.488;2022-07-25T12:30:35;1.42;;;1.33;;
61413;SDS011;47279;52.426;10.488;2022-07-25T12:33:01;1.60;;;1.50;;
61413;SDS011;47279;52.426;10.488;2022-07-25T12:35:27;1.80;;;1.35;;
61413;SDS011;47279;52.426;10.488;2022-07-25T12:37:53;1.40;;;1.30;;
61413;SDS011;47279;52.426;10.488;2022-07-25T12:40:19;1.55;;;1.45;;
61413;SDS011;47279;52.426;10.488;2022-07-25T12:42:46;1.30;;;1.20;;
61413;SDS011;47279;52.426;10.488;2022-07-25T12:45:12;1.45;;;1.35;;
61413;SDS011;47279;52.426;10.488;2022-07-25T12:47:39;1.67;;;1.50;;
61413;SDS011;47279;52.426;10.488;2022-07-25T12:50:06;1.60;;;1.50;;
61413;SDS011;47279;52.426;10.488;2022-07-25T12:52:33;1.30;;;1.20;;
61413;SDS011;47279;52.426;10.488;2022-07-25T12:54:59;1.58;;;1.48;;
61413;SDS011;47279;52.426;10.488;2022-07-25T12:57:24;1.60;;;1.50;;
61413;SDS011;47279;52.426;10.488;2022-07-25T12:59:50;1.50;;;1.40;;
61413;SDS011;47279;52.426;10.488;2022-07-25T13:02:17;1.63;;;1.50;;
61413;SDS011;47279;52.426;10.488;2022-07-25T13:04:43;1.58;;;1.33;;
61413;SDS011;47279;52.426;10.488;2022-07-25T13:07:09;1.58;;;1.48;;
61413;SDS011;47279;52.426;10.488;2022-07-25T13:09:35;1.20;;;1.10;;
61413;SDS011;47279;52.426;10.488;2022-07-25T13:12:01;1.58;;;1.48;;
61413;SDS011;47279;52.426;10.488;2022-07-25T13:14:27;1.48;;;1.30;;
61413;SDS011;47279;52.426;10.488;2022-07-25T13:16:53;1.30;;;1.20;;
61413;SDS011;47279;52.426;10.488;2022-07-25T13:19:19;1.50;;;1.40;;
61413;SDS011;47279;52.426;10.488;2022-07-25T13:21:45;1.70;;;1.60;;
61413;SDS011;47279;52.426;10.488;2022-07-25T13:24:11;2.08;;;1.60;;
61413;SDS011;47279;52.426;10.488;2022-07-25T13:26:37;1.60;;;1.50;;
61413;SDS011;47279;52.426;10.488;2022-07-25T13:29:04;1.50;;;1.40;;
61413;SDS011;47279;52.426;10.488;2022-07-25T13:31:35;1.50;;;1.40;;
61413;SDS011;47279;52.426;10.488;2022-07-25T13:34:01;2.50;;;1.67;;
61413;SDS011;47279;52.426;10.488;2022-07-25T13:36:27;1.70;;;1.60;;
61413;SDS011;47279;52.426;10.488;2022-07-25T13:38:53;1.90;;;1.70;;
61413;SDS011;47279;52.426;10.488;2022-07-25T13:41:19;1.70;;;1.60;;
61413;SDS011;47279;52.426;10.488;2022-07-25T13:43:45;1.75;;;1.50;;
61413;SDS011;47279;52.426;10.488;2022-07-25T13:46:11;1.58;;;1.48;;
61413;SDS011;47279;52.426;10.488;2022-07-25T13:48:37;1.88;;;1.42;;
61413;SDS011;47279;52.426;10.488;2022-07-25T13:51:03;2.00;;;1.55;;
61413;SDS011;47279;52.426;10.488;2022-07-25T13:53:29;1.60;;;1.50;;
61413;SDS011;47279;52.426;10.488;2022-07-25T13:55:56;1.67;;;1.58;;
61413;SDS011;47279;52.426;10.488;2022-07-25T13:58:22;1.92;;;1.20;;
61413;SDS011;47279;52.426;10.488;2022-07-25T14:00:48;1.70;;;1.60;;
61413;SDS011;47279;52.426;10.488;2022-07-25T14:03:14;1.65;;;1.55;;
61413;SDS011;47279;52.426;10.488;2022-07-25T14:05:40;1.40;;;1.30;;
61413;SDS011;47279;52.426;10.488;2022-07-25T14:08:06;1.45;;;1.35;;
61413;SDS011;47279;52.426;10.488;2022-07-25T14:10:33;1.58;;;1.48;;
61413;SDS011;47279;52.426;10.488;2022-07-25T14:12:59;2.00;;;1.80;;
61413;SDS011;47279;52.426;10.488;2022-07-25T14:15:25;1.52;;;1.42;;
61413;SDS011;47279;52.426;10.488;2022-07-25T14:17:51;2.05;;;1.60;;
61413;SDS011;47279;52.426;10.488;2022-07-25T14:20:17;1.85;;;1.67;;
61413;SDS011;47279;52.426;10.488;2022-07-25T14:22:43;1.98;;;1.52;;
61413;SDS011;47279;52.426;10.488;2022-07-25T14:25:09;1.52;;;1.42;;
61413;SDS011;47279;52.426;10.488;2022-07-25T14:27:36;1.55;;;1.30;;
61413;SDS011;47279;52.426;10.488;2022-07-25T14:30:02;1.90;;;1.60;;
61413;SDS011;47279;52.426;10.488;2022-07-25T14:32:28;1.48;;;1.38;;
61413;SDS011;47279;52.426;10.488;2022-07-25T14:34:54;1.50;;;1.40;;
61413;SDS011;47279;52.426;10.488;2022-07-25T14:37:20;1.70;;;1.52;;
61413;SDS011;47279;52.426;10.488;2022-07-25T14:39:47;2.03;;;1.70;;